<?xml version="1.0" encoding="UTF-8" standalone="no" ?>
<gpx xmlns="http://www.topografix.com/GPX/1/1" xmlns:xsi="http://www.w3.org/2001/XMLSchema-instance" xsi:schemaLocation="http://www.topografix.com/GPX/1/1 http://www.topografix.com/GPX/1/1/gpx.xsd" version="1.1" creator="VisuGPX - https://www.visugpx.com">
  <metadata>
    <name>Le Roi de Rome à VTT Circuit 20</name>
    <desc><![CDATA[
]]></desc>
  </metadata>
  <trk>
    <name><![CDATA[Le Roi de Rome à VTT]]></name>
    <trkseg>
      <trkpt lat="49.08815" lon="4.90295">
        <ele>138</ele>
        <time>2020-02-17T19:59:10.766Z</time>
      </trkpt>
      <trkpt lat="49.08857" lon="4.90374">
        <ele>141</ele>
        <time>2020-02-17T19:59:11.766Z</time>
      </trkpt>
      <trkpt lat="49.08857" lon="4.90374">
        <ele>141</ele>
        <time>2020-02-17T19:59:12.766Z</time>
      </trkpt>
      <trkpt lat="49.0887" lon="4.90389">
        <ele>141</ele>
        <time>2020-02-17T19:59:13.766Z</time>
      </trkpt>
      <trkpt lat="49.08915" lon="4.90414">
        <ele>142</ele>
        <time>2020-02-17T19:59:14.766Z</time>
      </trkpt>
      <trkpt lat="49.08941" lon="4.90439">
        <ele>142</ele>
        <time>2020-02-17T19:59:15.766Z</time>
      </trkpt>
      <trkpt lat="49.08941" lon="4.90439">
        <ele>142</ele>
        <time>2020-02-17T19:59:16.766Z</time>
      </trkpt>
      <trkpt lat="49.08949" lon="4.90458">
        <ele>143</ele>
        <time>2020-02-17T19:59:17.766Z</time>
      </trkpt>
      <trkpt lat="49.08949" lon="4.90458">
        <ele>143</ele>
        <time>2020-02-17T19:59:18.766Z</time>
      </trkpt>
      <trkpt lat="49.0896" lon="4.90515">
        <ele>144</ele>
        <time>2020-02-17T19:59:19.766Z</time>
      </trkpt>
      <trkpt lat="49.08974" lon="4.90601">
        <ele>143</ele>
        <time>2020-02-17T19:59:20.766Z</time>
      </trkpt>
      <trkpt lat="49.08981" lon="4.90646">
        <ele>142</ele>
        <time>2020-02-17T19:59:21.766Z</time>
      </trkpt>
      <trkpt lat="49.08979" lon="4.90677">
        <ele>141</ele>
        <time>2020-02-17T19:59:22.766Z</time>
      </trkpt>
      <trkpt lat="49.08958" lon="4.90869">
        <ele>143</ele>
        <time>2020-02-17T19:59:23.766Z</time>
      </trkpt>
      <trkpt lat="49.08926" lon="4.91026">
        <ele>142</ele>
        <time>2020-02-17T19:59:24.766Z</time>
      </trkpt>
      <trkpt lat="49.08913" lon="4.91067">
        <ele>140</ele>
        <time>2020-02-17T19:59:25.766Z</time>
      </trkpt>
      <trkpt lat="49.08913" lon="4.91067">
        <ele>140</ele>
        <time>2020-02-17T19:59:26.766Z</time>
      </trkpt>
      <trkpt lat="49.08915" lon="4.91087">
        <ele>140</ele>
        <time>2020-02-17T19:59:27.766Z</time>
      </trkpt>
      <trkpt lat="49.08915" lon="4.91087">
        <ele>140</ele>
        <time>2020-02-17T19:59:28.766Z</time>
      </trkpt>
      <trkpt lat="49.08923" lon="4.91127">
        <ele>142</ele>
        <time>2020-02-17T19:59:29.766Z</time>
      </trkpt>
      <trkpt lat="49.08929" lon="4.91148">
        <ele>143</ele>
        <time>2020-02-17T19:59:30.766Z</time>
      </trkpt>
      <trkpt lat="49.08919" lon="4.9121">
        <ele>143</ele>
        <time>2020-02-17T19:59:31.766Z</time>
      </trkpt>
      <trkpt lat="49.08919" lon="4.9121">
        <ele>143</ele>
        <time>2020-02-17T19:59:32.766Z</time>
      </trkpt>
      <trkpt lat="49.0889" lon="4.91345">
        <ele>145</ele>
        <time>2020-02-17T19:59:33.766Z</time>
      </trkpt>
      <trkpt lat="49.08798" lon="4.91697">
        <ele>146</ele>
        <time>2020-02-17T19:59:34.766Z</time>
      </trkpt>
      <trkpt lat="49.08743" lon="4.91869">
        <ele>140</ele>
        <time>2020-02-17T19:59:35.766Z</time>
      </trkpt>
      <trkpt lat="49.08725" lon="4.91896">
        <ele>140</ele>
        <time>2020-02-17T19:59:36.766Z</time>
      </trkpt>
      <trkpt lat="49.08724" lon="4.91904">
        <ele>140</ele>
        <time>2020-02-17T19:59:37.766Z</time>
      </trkpt>
      <trkpt lat="49.08724" lon="4.91904">
        <ele>140</ele>
        <time>2020-02-17T19:59:38.766Z</time>
      </trkpt>
      <trkpt lat="49.08664" lon="4.91897">
        <ele>138</ele>
        <time>2020-02-17T19:59:39.766Z</time>
      </trkpt>
      <trkpt lat="49.08616" lon="4.91879">
        <ele>137</ele>
        <time>2020-02-17T19:59:40.766Z</time>
      </trkpt>
      <trkpt lat="49.08584" lon="4.91861">
        <ele>137</ele>
        <time>2020-02-17T19:59:41.766Z</time>
      </trkpt>
      <trkpt lat="49.08584" lon="4.91861">
        <ele>137</ele>
        <time>2020-02-17T19:59:42.766Z</time>
      </trkpt>
      <trkpt lat="49.08509" lon="4.91865">
        <ele>139</ele>
        <time>2020-02-17T19:59:43.766Z</time>
      </trkpt>
      <trkpt lat="49.08439" lon="4.91882">
        <ele>140</ele>
        <time>2020-02-17T19:59:44.766Z</time>
      </trkpt>
      <trkpt lat="49.08386" lon="4.91882">
        <ele>139</ele>
        <time>2020-02-17T19:59:45.766Z</time>
      </trkpt>
      <trkpt lat="49.08386" lon="4.91882">
        <ele>139</ele>
        <time>2020-02-17T19:59:46.766Z</time>
      </trkpt>
      <trkpt lat="49.08304" lon="4.91867">
        <ele>139</ele>
        <time>2020-02-17T19:59:47.766Z</time>
      </trkpt>
      <trkpt lat="49.08304" lon="4.91867">
        <ele>139</ele>
        <time>2020-02-17T19:59:48.766Z</time>
      </trkpt>
      <trkpt lat="49.08239" lon="4.91832">
        <ele>136</ele>
        <time>2020-02-17T19:59:49.766Z</time>
      </trkpt>
      <trkpt lat="49.08169" lon="4.91803">
        <ele>136</ele>
        <time>2020-02-17T19:59:50.766Z</time>
      </trkpt>
      <trkpt lat="49.08126" lon="4.91791">
        <ele>138</ele>
        <time>2020-02-17T19:59:51.766Z</time>
      </trkpt>
      <trkpt lat="49.08126" lon="4.91791">
        <ele>138</ele>
        <time>2020-02-17T19:59:52.766Z</time>
      </trkpt>
      <trkpt lat="49.08037" lon="4.91853">
        <ele>144</ele>
        <time>2020-02-17T19:59:53.766Z</time>
      </trkpt>
      <trkpt lat="49.08005" lon="4.91922">
        <ele>147</ele>
        <time>2020-02-17T19:59:54.766Z</time>
      </trkpt>
      <trkpt lat="49.08007" lon="4.92005">
        <ele>149</ele>
        <time>2020-02-17T19:59:55.766Z</time>
      </trkpt>
      <trkpt lat="49.08091" lon="4.92111">
        <ele>151</ele>
        <time>2020-02-17T19:59:56.766Z</time>
      </trkpt>
      <trkpt lat="49.08128" lon="4.92249">
        <ele>156</ele>
        <time>2020-02-17T19:59:57.766Z</time>
      </trkpt>
      <trkpt lat="49.08139" lon="4.924">
        <ele>156</ele>
        <time>2020-02-17T19:59:58.766Z</time>
      </trkpt>
      <trkpt lat="49.08178" lon="4.92466">
        <ele>155</ele>
        <time>2020-02-17T19:59:59.766Z</time>
      </trkpt>
      <trkpt lat="49.08182" lon="4.92565">
        <ele>158</ele>
        <time>2020-02-17T20:00:00.766Z</time>
      </trkpt>
      <trkpt lat="49.08209" lon="4.92692">
        <ele>161</ele>
        <time>2020-02-17T20:00:01.766Z</time>
      </trkpt>
      <trkpt lat="49.0822" lon="4.92769">
        <ele>162</ele>
        <time>2020-02-17T20:00:02.766Z</time>
      </trkpt>
      <trkpt lat="49.08272" lon="4.92908">
        <ele>165</ele>
        <time>2020-02-17T20:00:03.766Z</time>
      </trkpt>
      <trkpt lat="49.0829" lon="4.92986">
        <ele>168</ele>
        <time>2020-02-17T20:00:04.766Z</time>
      </trkpt>
      <trkpt lat="49.08285" lon="4.93102">
        <ele>168</ele>
        <time>2020-02-17T20:00:05.766Z</time>
      </trkpt>
      <trkpt lat="49.08282" lon="4.93181">
        <ele>170</ele>
        <time>2020-02-17T20:00:06.766Z</time>
      </trkpt>
      <trkpt lat="49.08282" lon="4.93181">
        <ele>170</ele>
        <time>2020-02-17T20:00:07.766Z</time>
      </trkpt>
      <trkpt lat="49.08325" lon="4.93318">
        <ele>169</ele>
        <time>2020-02-17T20:00:08.766Z</time>
      </trkpt>
      <trkpt lat="49.08354" lon="4.93359">
        <ele>172</ele>
        <time>2020-02-17T20:00:09.766Z</time>
      </trkpt>
      <trkpt lat="49.08369" lon="4.9343">
        <ele>174</ele>
        <time>2020-02-17T20:00:10.766Z</time>
      </trkpt>
      <trkpt lat="49.08369" lon="4.9343">
        <ele>174</ele>
        <time>2020-02-17T20:00:11.766Z</time>
      </trkpt>
      <trkpt lat="49.08372" lon="4.9355">
        <ele>175</ele>
        <time>2020-02-17T20:00:12.766Z</time>
      </trkpt>
      <trkpt lat="49.0837" lon="4.93711">
        <ele>178</ele>
        <time>2020-02-17T20:00:13.766Z</time>
      </trkpt>
      <trkpt lat="49.08375" lon="4.93825">
        <ele>182</ele>
        <time>2020-02-17T20:00:14.766Z</time>
      </trkpt>
      <trkpt lat="49.084" lon="4.93898">
        <ele>180</ele>
        <time>2020-02-17T20:00:15.766Z</time>
      </trkpt>
      <trkpt lat="49.08404" lon="4.94035">
        <ele>181</ele>
        <time>2020-02-17T20:00:16.766Z</time>
      </trkpt>
      <trkpt lat="49.08432" lon="4.94121">
        <ele>182</ele>
        <time>2020-02-17T20:00:17.766Z</time>
      </trkpt>
      <trkpt lat="49.08473" lon="4.94192">
        <ele>187</ele>
        <time>2020-02-17T20:00:18.766Z</time>
      </trkpt>
      <trkpt lat="49.08494" lon="4.94269">
        <ele>186</ele>
        <time>2020-02-17T20:00:19.766Z</time>
      </trkpt>
      <trkpt lat="49.08522" lon="4.94376">
        <ele>192</ele>
        <time>2020-02-17T20:00:20.766Z</time>
      </trkpt>
      <trkpt lat="49.0857" lon="4.94511">
        <ele>193</ele>
        <time>2020-02-17T20:00:21.766Z</time>
      </trkpt>
      <trkpt lat="49.08593" lon="4.94711">
        <ele>199</ele>
        <time>2020-02-17T20:00:22.766Z</time>
      </trkpt>
      <trkpt lat="49.08605" lon="4.94949">
        <ele>204</ele>
        <time>2020-02-17T20:00:23.766Z</time>
      </trkpt>
      <trkpt lat="49.08594" lon="4.95192">
        <ele>213</ele>
        <time>2020-02-17T20:00:24.766Z</time>
      </trkpt>
      <trkpt lat="49.08594" lon="4.95192">
        <ele>213</ele>
        <time>2020-02-17T20:00:25.766Z</time>
      </trkpt>
      <trkpt lat="49.08541" lon="4.95417">
        <ele>218</ele>
        <time>2020-02-17T20:00:26.766Z</time>
      </trkpt>
      <trkpt lat="49.08541" lon="4.95417">
        <ele>218</ele>
        <time>2020-02-17T20:00:27.766Z</time>
      </trkpt>
      <trkpt lat="49.08522" lon="4.95481">
        <ele>218</ele>
        <time>2020-02-17T20:00:28.766Z</time>
      </trkpt>
      <trkpt lat="49.08505" lon="4.95552">
        <ele>219</ele>
        <time>2020-02-17T20:00:29.766Z</time>
      </trkpt>
      <trkpt lat="49.0851" lon="4.95621">
        <ele>220</ele>
        <time>2020-02-17T20:00:30.766Z</time>
      </trkpt>
      <trkpt lat="49.0851" lon="4.95621">
        <ele>220</ele>
        <time>2020-02-17T20:00:31.766Z</time>
      </trkpt>
      <trkpt lat="49.08768" lon="4.95619">
        <ele>220</ele>
        <time>2020-02-17T20:00:32.766Z</time>
      </trkpt>
      <trkpt lat="49.08792" lon="4.96042">
        <ele>224</ele>
        <time>2020-02-17T20:00:33.766Z</time>
      </trkpt>
      <trkpt lat="49.0882" lon="4.96048">
        <ele>221</ele>
        <time>2020-02-17T20:00:34.766Z</time>
      </trkpt>
      <trkpt lat="49.08819" lon="4.96196">
        <ele>222</ele>
        <time>2020-02-17T20:00:35.766Z</time>
      </trkpt>
      <trkpt lat="49.08831" lon="4.96347">
        <ele>229</ele>
        <time>2020-02-17T20:00:36.766Z</time>
      </trkpt>
      <trkpt lat="49.08831" lon="4.96347">
        <ele>229</ele>
        <time>2020-02-17T20:00:37.766Z</time>
      </trkpt>
      <trkpt lat="49.08823" lon="4.96395">
        <ele>230</ele>
        <time>2020-02-17T20:00:38.766Z</time>
      </trkpt>
      <trkpt lat="49.08832" lon="4.96445">
        <ele>231</ele>
        <time>2020-02-17T20:00:39.766Z</time>
      </trkpt>
      <trkpt lat="49.08266" lon="4.96842">
        <ele>242</ele>
        <time>2020-02-17T20:00:40.766Z</time>
      </trkpt>
      <trkpt lat="49.08966" lon="4.97775">
        <ele>257</ele>
        <time>2020-02-17T20:00:41.766Z</time>
      </trkpt>
      <trkpt lat="49.08966" lon="4.97775">
        <ele>257</ele>
        <time>2020-02-17T20:00:42.766Z</time>
      </trkpt>
      <trkpt lat="49.07468" lon="4.98921">
        <ele>251</ele>
        <time>2020-02-17T20:00:43.766Z</time>
      </trkpt>
      <trkpt lat="49.07415" lon="4.98981">
        <ele>254</ele>
        <time>2020-02-17T20:00:44.766Z</time>
      </trkpt>
      <trkpt lat="49.06507" lon="4.99673">
        <ele>252</ele>
        <time>2020-02-17T20:00:45.766Z</time>
      </trkpt>
      <trkpt lat="49.06507" lon="4.99673">
        <ele>252</ele>
        <time>2020-02-17T20:00:46.766Z</time>
      </trkpt>
      <trkpt lat="49.06564" lon="4.99564">
        <ele>251</ele>
        <time>2020-02-17T20:00:47.766Z</time>
      </trkpt>
      <trkpt lat="49.06564" lon="4.99564">
        <ele>251</ele>
        <time>2020-02-17T20:00:48.766Z</time>
      </trkpt>
      <trkpt lat="49.06319" lon="4.98912">
        <ele>237</ele>
        <time>2020-02-17T20:00:49.766Z</time>
      </trkpt>
      <trkpt lat="49.06128" lon="4.98279">
        <ele>211</ele>
        <time>2020-02-17T20:00:50.766Z</time>
      </trkpt>
      <trkpt lat="49.06037" lon="4.97975">
        <ele>222</ele>
        <time>2020-02-17T20:00:51.766Z</time>
      </trkpt>
      <trkpt lat="49.0601" lon="4.97861">
        <ele>225</ele>
        <time>2020-02-17T20:00:52.766Z</time>
      </trkpt>
      <trkpt lat="49.05792" lon="4.97234">
        <ele>218</ele>
        <time>2020-02-17T20:00:53.766Z</time>
      </trkpt>
      <trkpt lat="49.05792" lon="4.97234">
        <ele>218</ele>
        <time>2020-02-17T20:00:54.766Z</time>
      </trkpt>
      <trkpt lat="49.05749" lon="4.97168">
        <ele>224</ele>
        <time>2020-02-17T20:00:55.766Z</time>
      </trkpt>
      <trkpt lat="49.05705" lon="4.97135">
        <ele>220</ele>
        <time>2020-02-17T20:00:56.766Z</time>
      </trkpt>
      <trkpt lat="49.05552" lon="4.97047">
        <ele>223</ele>
        <time>2020-02-17T20:00:57.766Z</time>
      </trkpt>
      <trkpt lat="49.05406" lon="4.96893">
        <ele>226</ele>
        <time>2020-02-17T20:00:58.766Z</time>
      </trkpt>
      <trkpt lat="49.05089" lon="4.96562">
        <ele>222</ele>
        <time>2020-02-17T20:00:59.766Z</time>
      </trkpt>
      <trkpt lat="49.05013" lon="4.96341">
        <ele>219</ele>
        <time>2020-02-17T20:01:00.766Z</time>
      </trkpt>
      <trkpt lat="49.04935" lon="4.96106">
        <ele>218</ele>
        <time>2020-02-17T20:01:01.766Z</time>
      </trkpt>
      <trkpt lat="49.04892" lon="4.95999">
        <ele>215</ele>
        <time>2020-02-17T20:01:02.766Z</time>
      </trkpt>
      <trkpt lat="49.04736" lon="4.95555">
        <ele>194</ele>
        <time>2020-02-17T20:01:03.766Z</time>
      </trkpt>
      <trkpt lat="49.04749" lon="4.95277">
        <ele>189</ele>
        <time>2020-02-17T20:01:04.766Z</time>
      </trkpt>
      <trkpt lat="49.04766" lon="4.94831">
        <ele>179</ele>
        <time>2020-02-17T20:01:05.766Z</time>
      </trkpt>
      <trkpt lat="49.04766" lon="4.94831">
        <ele>179</ele>
        <time>2020-02-17T20:01:06.766Z</time>
      </trkpt>
      <trkpt lat="49.04793" lon="4.94753">
        <ele>177</ele>
        <time>2020-02-17T20:01:07.766Z</time>
      </trkpt>
      <trkpt lat="49.04871" lon="4.94645">
        <ele>180</ele>
        <time>2020-02-17T20:01:08.766Z</time>
      </trkpt>
      <trkpt lat="49.04952" lon="4.94431">
        <ele>184</ele>
        <time>2020-02-17T20:01:09.766Z</time>
      </trkpt>
      <trkpt lat="49.04711" lon="4.94068">
        <ele>183</ele>
        <time>2020-02-17T20:01:10.766Z</time>
      </trkpt>
      <trkpt lat="49.04901" lon="4.93919">
        <ele>188</ele>
        <time>2020-02-17T20:01:11.766Z</time>
      </trkpt>
      <trkpt lat="49.05195" lon="4.93741">
        <ele>169</ele>
        <time>2020-02-17T20:01:12.766Z</time>
      </trkpt>
      <trkpt lat="49.05195" lon="4.93741">
        <ele>169</ele>
        <time>2020-02-17T20:01:13.766Z</time>
      </trkpt>
      <trkpt lat="49.05228" lon="4.93692">
        <ele>164</ele>
        <time>2020-02-17T20:01:14.766Z</time>
      </trkpt>
      <trkpt lat="49.05261" lon="4.93606">
        <ele>159</ele>
        <time>2020-02-17T20:01:15.766Z</time>
      </trkpt>
      <trkpt lat="49.05306" lon="4.93543">
        <ele>161</ele>
        <time>2020-02-17T20:01:16.766Z</time>
      </trkpt>
      <trkpt lat="49.05306" lon="4.93543">
        <ele>161</ele>
        <time>2020-02-17T20:01:17.766Z</time>
      </trkpt>
      <trkpt lat="49.05386" lon="4.93371">
        <ele>167</ele>
        <time>2020-02-17T20:01:18.766Z</time>
      </trkpt>
      <trkpt lat="49.05411" lon="4.93305">
        <ele>170</ele>
        <time>2020-02-17T20:01:19.766Z</time>
      </trkpt>
      <trkpt lat="49.05443" lon="4.93276">
        <ele>174</ele>
        <time>2020-02-17T20:01:20.766Z</time>
      </trkpt>
      <trkpt lat="49.05443" lon="4.93276">
        <ele>174</ele>
        <time>2020-02-17T20:01:21.766Z</time>
      </trkpt>
      <trkpt lat="49.05462" lon="4.93029">
        <ele>176</ele>
        <time>2020-02-17T20:01:22.766Z</time>
      </trkpt>
      <trkpt lat="49.05482" lon="4.92829">
        <ele>174</ele>
        <time>2020-02-17T20:01:23.766Z</time>
      </trkpt>
      <trkpt lat="49.05506" lon="4.92577">
        <ele>174</ele>
        <time>2020-02-17T20:01:24.766Z</time>
      </trkpt>
      <trkpt lat="49.05506" lon="4.92577">
        <ele>174</ele>
        <time>2020-02-17T20:01:25.766Z</time>
      </trkpt>
      <trkpt lat="49.0574" lon="4.92458">
        <ele>175</ele>
        <time>2020-02-17T20:01:26.766Z</time>
      </trkpt>
      <trkpt lat="49.05742" lon="4.92312">
        <ele>172</ele>
        <time>2020-02-17T20:01:27.766Z</time>
      </trkpt>
      <trkpt lat="49.0583" lon="4.91788">
        <ele>159</ele>
        <time>2020-02-17T20:01:28.766Z</time>
      </trkpt>
      <trkpt lat="49.05882" lon="4.91632">
        <ele>153</ele>
        <time>2020-02-17T20:01:29.766Z</time>
      </trkpt>
      <trkpt lat="49.05929" lon="4.91488">
        <ele>146</ele>
        <time>2020-02-17T20:01:30.766Z</time>
      </trkpt>
      <trkpt lat="49.05929" lon="4.91488">
        <ele>146</ele>
        <time>2020-02-17T20:01:31.766Z</time>
      </trkpt>
      <trkpt lat="49.06033" lon="4.91647">
        <ele>150</ele>
        <time>2020-02-17T20:01:32.766Z</time>
      </trkpt>
      <trkpt lat="49.06151" lon="4.9185">
        <ele>150</ele>
        <time>2020-02-17T20:01:33.766Z</time>
      </trkpt>
      <trkpt lat="49.06188" lon="4.91858">
        <ele>148</ele>
        <time>2020-02-17T20:01:34.766Z</time>
      </trkpt>
      <trkpt lat="49.06229" lon="4.9201">
        <ele>144</ele>
        <time>2020-02-17T20:01:35.766Z</time>
      </trkpt>
      <trkpt lat="49.06253" lon="4.92127">
        <ele>145</ele>
        <time>2020-02-17T20:01:36.766Z</time>
      </trkpt>
      <trkpt lat="49.06252" lon="4.92259">
        <ele>149</ele>
        <time>2020-02-17T20:01:37.766Z</time>
      </trkpt>
      <trkpt lat="49.06255" lon="4.92333">
        <ele>155</ele>
        <time>2020-02-17T20:01:38.766Z</time>
      </trkpt>
      <trkpt lat="49.06272" lon="4.92449">
        <ele>159</ele>
        <time>2020-02-17T20:01:39.766Z</time>
      </trkpt>
      <trkpt lat="49.06291" lon="4.92518">
        <ele>155</ele>
        <time>2020-02-17T20:01:40.766Z</time>
      </trkpt>
      <trkpt lat="49.06291" lon="4.92518">
        <ele>155</ele>
        <time>2020-02-17T20:01:41.766Z</time>
      </trkpt>
      <trkpt lat="49.06352" lon="4.92618">
        <ele>144</ele>
        <time>2020-02-17T20:01:42.766Z</time>
      </trkpt>
      <trkpt lat="49.0641" lon="4.92648">
        <ele>149</ele>
        <time>2020-02-17T20:01:43.766Z</time>
      </trkpt>
      <trkpt lat="49.06457" lon="4.9266">
        <ele>154</ele>
        <time>2020-02-17T20:01:44.766Z</time>
      </trkpt>
      <trkpt lat="49.06485" lon="4.9265">
        <ele>155</ele>
        <time>2020-02-17T20:01:45.766Z</time>
      </trkpt>
      <trkpt lat="49.06525" lon="4.92592">
        <ele>145</ele>
        <time>2020-02-17T20:01:46.766Z</time>
      </trkpt>
      <trkpt lat="49.06578" lon="4.92602">
        <ele>147</ele>
        <time>2020-02-17T20:01:47.766Z</time>
      </trkpt>
      <trkpt lat="49.06613" lon="4.92631">
        <ele>151</ele>
        <time>2020-02-17T20:01:48.766Z</time>
      </trkpt>
      <trkpt lat="49.06634" lon="4.92602">
        <ele>150</ele>
        <time>2020-02-17T20:01:49.766Z</time>
      </trkpt>
      <trkpt lat="49.06734" lon="4.9249">
        <ele>156</ele>
        <time>2020-02-17T20:01:50.766Z</time>
      </trkpt>
      <trkpt lat="49.06734" lon="4.9249">
        <ele>156</ele>
        <time>2020-02-17T20:01:51.766Z</time>
      </trkpt>
      <trkpt lat="49.06769" lon="4.92329">
        <ele>149</ele>
        <time>2020-02-17T20:01:52.766Z</time>
      </trkpt>
      <trkpt lat="49.06769" lon="4.92329">
        <ele>149</ele>
        <time>2020-02-17T20:01:53.766Z</time>
      </trkpt>
      <trkpt lat="49.06767" lon="4.92147">
        <ele>146</ele>
        <time>2020-02-17T20:01:54.766Z</time>
      </trkpt>
      <trkpt lat="49.06767" lon="4.92147">
        <ele>146</ele>
        <time>2020-02-17T20:01:55.766Z</time>
      </trkpt>
      <trkpt lat="49.06758" lon="4.92018">
        <ele>145</ele>
        <time>2020-02-17T20:01:56.766Z</time>
      </trkpt>
      <trkpt lat="49.06743" lon="4.91921">
        <ele>144</ele>
        <time>2020-02-17T20:01:57.766Z</time>
      </trkpt>
      <trkpt lat="49.06728" lon="4.91875">
        <ele>143</ele>
        <time>2020-02-17T20:01:58.766Z</time>
      </trkpt>
      <trkpt lat="49.0673" lon="4.91723">
        <ele>140</ele>
        <time>2020-02-17T20:01:59.766Z</time>
      </trkpt>
      <trkpt lat="49.06729" lon="4.91711">
        <ele>140</ele>
        <time>2020-02-17T20:02:00.766Z</time>
      </trkpt>
      <trkpt lat="49.06729" lon="4.91711">
        <ele>140</ele>
        <time>2020-02-17T20:02:01.766Z</time>
      </trkpt>
      <trkpt lat="49.06837" lon="4.9166">
        <ele>140</ele>
        <time>2020-02-17T20:02:02.766Z</time>
      </trkpt>
      <trkpt lat="49.06826" lon="4.9157">
        <ele>138</ele>
        <time>2020-02-17T20:02:03.766Z</time>
      </trkpt>
      <trkpt lat="49.06745" lon="4.91268">
        <ele>140</ele>
        <time>2020-02-17T20:02:04.766Z</time>
      </trkpt>
      <trkpt lat="49.06745" lon="4.91268">
        <ele>140</ele>
        <time>2020-02-17T20:02:05.766Z</time>
      </trkpt>
      <trkpt lat="49.0697" lon="4.91108">
        <ele>146</ele>
        <time>2020-02-17T20:02:06.766Z</time>
      </trkpt>
      <trkpt lat="49.0697" lon="4.91108">
        <ele>146</ele>
        <time>2020-02-17T20:02:07.766Z</time>
      </trkpt>
      <trkpt lat="49.07061" lon="4.90971">
        <ele>140</ele>
        <time>2020-02-17T20:02:08.766Z</time>
      </trkpt>
      <trkpt lat="49.07136" lon="4.90843">
        <ele>140</ele>
        <time>2020-02-17T20:02:09.766Z</time>
      </trkpt>
      <trkpt lat="49.07207" lon="4.90739">
        <ele>137</ele>
        <time>2020-02-17T20:02:10.766Z</time>
      </trkpt>
      <trkpt lat="49.07207" lon="4.90739">
        <ele>137</ele>
        <time>2020-02-17T20:02:11.766Z</time>
      </trkpt>
      <trkpt lat="49.07294" lon="4.90677">
        <ele>139</ele>
        <time>2020-02-17T20:02:12.766Z</time>
      </trkpt>
      <trkpt lat="49.0734" lon="4.90647">
        <ele>141</ele>
        <time>2020-02-17T20:02:13.766Z</time>
      </trkpt>
      <trkpt lat="49.07365" lon="4.90636">
        <ele>141</ele>
        <time>2020-02-17T20:02:14.766Z</time>
      </trkpt>
      <trkpt lat="49.07365" lon="4.90636">
        <ele>141</ele>
        <time>2020-02-17T20:02:15.766Z</time>
      </trkpt>
      <trkpt lat="49.07438" lon="4.90618">
        <ele>143</ele>
        <time>2020-02-17T20:02:16.766Z</time>
      </trkpt>
      <trkpt lat="49.07493" lon="4.9062">
        <ele>145</ele>
        <time>2020-02-17T20:02:17.766Z</time>
      </trkpt>
      <trkpt lat="49.076" lon="4.9064">
        <ele>150</ele>
        <time>2020-02-17T20:02:18.766Z</time>
      </trkpt>
      <trkpt lat="49.07715" lon="4.9075">
        <ele>150</ele>
        <time>2020-02-17T20:02:19.766Z</time>
      </trkpt>
      <trkpt lat="49.07822" lon="4.90874">
        <ele>152</ele>
        <time>2020-02-17T20:02:20.766Z</time>
      </trkpt>
      <trkpt lat="49.07822" lon="4.90874">
        <ele>152</ele>
        <time>2020-02-17T20:02:21.766Z</time>
      </trkpt>
      <trkpt lat="49.07893" lon="4.90965">
        <ele>152</ele>
        <time>2020-02-17T20:02:22.766Z</time>
      </trkpt>
      <trkpt lat="49.08063" lon="4.91222">
        <ele>150</ele>
        <time>2020-02-17T20:02:23.766Z</time>
      </trkpt>
      <trkpt lat="49.0816" lon="4.91367">
        <ele>146</ele>
        <time>2020-02-17T20:02:24.766Z</time>
      </trkpt>
      <trkpt lat="49.08227" lon="4.91424">
        <ele>144</ele>
        <time>2020-02-17T20:02:25.766Z</time>
      </trkpt>
      <trkpt lat="49.08295" lon="4.91463">
        <ele>144</ele>
        <time>2020-02-17T20:02:26.766Z</time>
      </trkpt>
      <trkpt lat="49.08295" lon="4.91463">
        <ele>144</ele>
        <time>2020-02-17T20:02:27.766Z</time>
      </trkpt>
      <trkpt lat="49.08363" lon="4.91485">
        <ele>143</ele>
        <time>2020-02-17T20:02:28.766Z</time>
      </trkpt>
      <trkpt lat="49.08408" lon="4.91483">
        <ele>142</ele>
        <time>2020-02-17T20:02:29.766Z</time>
      </trkpt>
      <trkpt lat="49.08498" lon="4.9147">
        <ele>143</ele>
        <time>2020-02-17T20:02:30.766Z</time>
      </trkpt>
      <trkpt lat="49.08525" lon="4.91492">
        <ele>142</ele>
        <time>2020-02-17T20:02:31.766Z</time>
      </trkpt>
      <trkpt lat="49.08552" lon="4.91485">
        <ele>142</ele>
        <time>2020-02-17T20:02:32.766Z</time>
      </trkpt>
      <trkpt lat="49.0859" lon="4.91535">
        <ele>140</ele>
        <time>2020-02-17T20:02:33.766Z</time>
      </trkpt>
      <trkpt lat="49.08646" lon="4.91634">
        <ele>137</ele>
        <time>2020-02-17T20:02:34.766Z</time>
      </trkpt>
      <trkpt lat="49.08646" lon="4.91634">
        <ele>137</ele>
        <time>2020-02-17T20:02:35.766Z</time>
      </trkpt>
      <trkpt lat="49.0868" lon="4.91701">
        <ele>137</ele>
        <time>2020-02-17T20:02:36.766Z</time>
      </trkpt>
      <trkpt lat="49.08706" lon="4.9178">
        <ele>138</ele>
        <time>2020-02-17T20:02:37.766Z</time>
      </trkpt>
      <trkpt lat="49.08732" lon="4.91875">
        <ele>140</ele>
        <time>2020-02-17T20:02:38.766Z</time>
      </trkpt>
      <trkpt lat="49.08732" lon="4.91875">
        <ele>140</ele>
        <time>2020-02-17T20:02:39.766Z</time>
      </trkpt>
      <trkpt lat="49.08766" lon="4.91818">
        <ele>143</ele>
        <time>2020-02-17T20:02:40.766Z</time>
      </trkpt>
      <trkpt lat="49.08766" lon="4.91818">
        <ele>143</ele>
        <time>2020-02-17T20:02:41.766Z</time>
      </trkpt>
      <trkpt lat="49.08792" lon="4.91732">
        <ele>146</ele>
        <time>2020-02-17T20:02:42.766Z</time>
      </trkpt>
      <trkpt lat="49.08885" lon="4.91369">
        <ele>145</ele>
        <time>2020-02-17T20:02:43.766Z</time>
      </trkpt>
      <trkpt lat="49.08921" lon="4.91202">
        <ele>143</ele>
        <time>2020-02-17T20:02:44.766Z</time>
      </trkpt>
      <trkpt lat="49.08927" lon="4.91146">
        <ele>143</ele>
        <time>2020-02-17T20:02:45.766Z</time>
      </trkpt>
      <trkpt lat="49.08912" lon="4.91068">
        <ele>140</ele>
        <time>2020-02-17T20:02:46.766Z</time>
      </trkpt>
      <trkpt lat="49.08912" lon="4.91068">
        <ele>140</ele>
        <time>2020-02-17T20:02:47.766Z</time>
      </trkpt>
      <trkpt lat="49.08948" lon="4.90928">
        <ele>144</ele>
        <time>2020-02-17T20:02:48.766Z</time>
      </trkpt>
      <trkpt lat="49.08948" lon="4.90928">
        <ele>144</ele>
        <time>2020-02-17T20:02:49.766Z</time>
      </trkpt>
      <trkpt lat="49.08959" lon="4.90854">
        <ele>142</ele>
        <time>2020-02-17T20:02:50.766Z</time>
      </trkpt>
      <trkpt lat="49.08978" lon="4.90681">
        <ele>141</ele>
        <time>2020-02-17T20:02:51.766Z</time>
      </trkpt>
      <trkpt lat="49.08981" lon="4.90668">
        <ele>142</ele>
        <time>2020-02-17T20:02:52.766Z</time>
      </trkpt>
      <trkpt lat="49.08981" lon="4.90668">
        <ele>142</ele>
        <time>2020-02-17T20:02:53.766Z</time>
      </trkpt>
      <trkpt lat="49.08979" lon="4.90641">
        <ele>142</ele>
        <time>2020-02-17T20:02:54.766Z</time>
      </trkpt>
      <trkpt lat="49.08979" lon="4.90641">
        <ele>142</ele>
        <time>2020-02-17T20:02:55.766Z</time>
      </trkpt>
      <trkpt lat="49.08961" lon="4.90514">
        <ele>144</ele>
        <time>2020-02-17T20:02:56.766Z</time>
      </trkpt>
      <trkpt lat="49.08954" lon="4.90473">
        <ele>143</ele>
        <time>2020-02-17T20:02:57.766Z</time>
      </trkpt>
      <trkpt lat="49.08945" lon="4.90445">
        <ele>143</ele>
        <time>2020-02-17T20:02:58.766Z</time>
      </trkpt>
      <trkpt lat="49.08945" lon="4.90445">
        <ele>143</ele>
        <time>2020-02-17T20:02:59.766Z</time>
      </trkpt>
      <trkpt lat="49.08923" lon="4.9042">
        <ele>142</ele>
        <time>2020-02-17T20:03:00.766Z</time>
      </trkpt>
      <trkpt lat="49.0889" lon="4.90398">
        <ele>141</ele>
        <time>2020-02-17T20:03:01.766Z</time>
      </trkpt>
      <trkpt lat="49.08869" lon="4.90388">
        <ele>141</ele>
        <time>2020-02-17T20:03:02.766Z</time>
      </trkpt>
      <trkpt lat="49.08869" lon="4.90388">
        <ele>141</ele>
        <time>2020-02-17T20:03:03.766Z</time>
      </trkpt>
      <trkpt lat="49.08851" lon="4.90363">
        <ele>141</ele>
        <time>2020-02-17T20:03:04.766Z</time>
      </trkpt>
      <trkpt lat="49.08818" lon="4.90302">
        <ele>138</ele>
        <time>2020-02-17T20:03:05.766Z</time>
      </trkpt>
    </trkseg>
  </trk>
</gpx>